sensor_id;sensor_type;location;lat;lon;timestamp;P1;durP1;ratioP1;P2;durP2;ratioP2
54805;SDS011;62866;55.776;37.496;2023-05-07T00:02:21;5.50;;;2.35;;
54805;SDS011;62866;55.776;37.496;2023-05-07T00:04:47;5.47;;;2.70;;
54805;SDS011;62866;55.776;37.496;2023-05-07T00:07:14;6.55;;;2.35;;
54805;SDS011;62866;55.776;37.496;2023-05-07T00:09:39;4.63;;;2.30;;
54805;SDS011;62866;55.776;37.496;2023-05-07T00:12:05;5.97;;;2.42;;
54805;SDS011;62866;55.776;37.496;2023-05-07T00:14:31;4.88;;;2.30;;
54805;SDS011;62866;55.776;37.496;2023-05-07T00:16:57;5.90;;;2.40;;
54805;SDS011;62866;55.776;37.496;2023-05-07T00:19:22;4.88;;;2.55;;
54805;SDS011;62866;55.776;37.496;2023-05-07T00:21:48;4.05;;;2.25;;
54805;SDS011;62866;55.776;37.496;2023-05-07T00:24:13;9.23;;;2.40;;
54805;SDS011;62866;55.776;37.496;2023-05-07T00:26:39;4.95;;;2.05;;
54805;SDS011;62866;55.776;37.496;2023-05-07T00:29:05;4.63;;;2.03;;
54805;SDS011;62866;55.776;37.496;2023-05-07T00:31:30;3.35;;;2.03;;
54805;SDS011;62866;55.776;37.496;2023-05-07T00:33:56;2.78;;;1.95;;
54805;SDS011;62866;55.776;37.496;2023-05-07T00:36:21;5.75;;;2.22;;
54805;SDS011;62866;55.776;37.496;2023-05-07T00:38:47;6.00;;;2.20;;
54805;SDS011;62866;55.776;37.496;2023-05-07T00:41:12;3.60;;;1.92;;
54805;SDS011;62866;55.776;37.496;2023-05-07T00:43:38;3.55;;;2.10;;
54805;SDS011;62866;55.776;37.496;2023-05-07T00:46:03;5.57;;;2.17;;
54805;SDS011;62866;55.776;37.496;2023-05-07T00:48:30;4.25;;;2.08;;
54805;SDS011;62866;55.776;37.496;2023-05-07T00:50:56;2.67;;;1.75;;
54805;SDS011;62866;55.776;37.496;2023-05-07T00:53:22;4.10;;;2.05;;
54805;SDS011;62866;55.776;37.496;2023-05-07T00:55:47;4.45;;;1.98;;
54805;SDS011;62866;55.776;37.496;2023-05-07T00:58:13;2.97;;;1.75;;
54805;SDS011;62866;55.776;37.496;2023-05-07T01:00:39;3.33;;;1.80;;
54805;SDS011;62866;55.776;37.496;2023-05-07T01:03:05;4.18;;;2.00;;
54805;SDS011;62866;55.776;37.496;2023-05-07T01:05:31;3.38;;;1.55;;
54805;SDS011;62866;55.776;37.496;2023-05-07T01:07:57;3.40;;;1.88;;
54805;SDS011;62866;55.776;37.496;2023-05-07T01:10:24;4.25;;;2.03;;
54805;SDS011;62866;55.776;37.496;2023-05-07T01:12:50;4.50;;;1.48;;
54805;SDS011;62866;55.776;37.496;2023-05-07T01:15:17;3.03;;;1.75;;
54805;SDS011;62866;55.776;37.496;2023-05-07T01:17:43;2.78;;;1.77;;
54805;SDS011;62866;55.776;37.496;2023-05-07T01:20:09;2.97;;;1.80;;
54805;SDS011;62866;55.776;37.496;2023-05-07T01:22:35;2.78;;;1.33;;
54805;SDS011;62866;55.776;37.496;2023-05-07T01:25:03;3.35;;;1.73;;
54805;SDS011;62866;55.776;37.496;2023-05-07T01:27:29;3.15;;;1.75;;
54805;SDS011;62866;55.776;37.496;2023-05-07T01:29:55;2.67;;;1.70;;
54805;SDS011;62866;55.776;37.496;2023-05-07T01:32:27;3.75;;;1.95;;
54805;SDS011;62866;55.776;37.496;2023-05-07T01:35:18;3.92;;;2.03;;
54805;SDS011;62866;55.776;37.496;2023-05-07T01:37:46;3.95;;;2.00;;
54805;SDS011;62866;55.776;37.496;2023-05-07T01:40:13;3.85;;;2.22;;
54805;SDS011;62866;55.776;37.496;2023-05-07T01:42:39;4.60;;;2.15;;
54805;SDS011;62866;55.776;37.496;2023-05-07T01:45:07;5.47;;;1.85;;
54805;SDS011;62866;55.776;37.496;2023-05-07T01:47:32;3.03;;;1.70;;
54805;SDS011;62866;55.776;37.496;2023-05-07T01:49:58;3.42;;;2.00;;
54805;SDS011;62866;55.776;37.496;2023-05-07T01:52:24;3.80;;;2.05;;
54805;SDS011;62866;55.776;37.496;2023-05-07T01:54:50;3.08;;;1.90;;
54805;SDS011;62866;55.776;37.496;2023-05-07T01:57:16;3.30;;;1.92;;
54805;SDS011;62866;55.776;37.496;2023-05-07T01:59:41;4.40;;;2.00;;
54805;SDS011;62866;55.776;37.496;2023-05-07T02:02:07;3.55;;;1.88;;
54805;SDS011;62866;55.776;37.496;2023-05-07T02:04:32;8.68;;;2.38;;
54805;SDS011;62866;55.776;37.496;2023-05-07T02:06:58;3.35;;;1.77;;
54805;SDS011;62866;55.776;37.496;2023-05-07T02:09:23;4.97;;;2.13;;
54805;SDS011;62866;55.776;37.496;2023-05-07T02:11:49;4.85;;;2.28;;
54805;SDS011;62866;55.776;37.496;2023-05-07T02:14:14;3.78;;;1.98;;
54805;SDS011;62866;55.776;37.496;2023-05-07T02:16:40;5.15;;;2.33;;
54805;SDS011;62866;55.776;37.496;2023-05-07T02:19:06;3.47;;;2.05;;
54805;SDS011;62866;55.776;37.496;2023-05-07T02:21:32;4.13;;;2.20;;
54805;SDS011;62866;55.776;37.496;2023-05-07T02:23:57;2.72;;;2.22;;
54805;SDS011;62866;55.776;37.496;2023-05-07T02:26:23;4.00;;;2.05;;
54805;SDS011;62866;55.776;37.496;2023-05-07T02:28:48;4.22;;;2.30;;
54805;SDS011;62866;55.776;37.496;2023-05-07T02:31:14;5.60;;;2.13;;
54805;SDS011;62866;55.776;37.496;2023-05-07T02:33:39;5.18;;;2.35;;
54805;SDS011;62866;55.776;37.496;2023-05-07T02:36:06;2.95;;;1.88;;
54805;SDS011;62866;55.776;37.496;2023-05-07T02:38:32;7.05;;;2.30;;
54805;SDS011;62866;55.776;37.496;2023-05-07T02:40:58;4.35;;;1.83;;
54805;SDS011;62866;55.776;37.496;2023-05-07T02:43:24;3.63;;;1.95;;
54805;SDS011;62866;55.776;37.496;2023-05-07T02:45:59;4.22;;;2.30;;
54805;SDS011;62866;55.776;37.496;2023-05-07T02:48:26;3.80;;;2.30;;
54805;SDS011;62866;55.776;37.496;2023-05-07T02:50:51;4.70;;;2.05;;
54805;SDS011;62866;55.776;37.496;2023-05-07T02:53:17;3.85;;;2.15;;
54805;SDS011;62866;55.776;37.496;2023-05-07T02:55:43;2.50;;;1.60;;
54805;SDS011;62866;55.776;37.496;2023-05-07T02:58:09;3.22;;;1.90;;
54805;SDS011;62866;55.776;37.496;2023-05-07T03:00:34;4.53;;;1.98;;
54805;SDS011;62866;55.776;37.496;2023-05-07T03:03:00;3.42;;;2.00;;
54805;SDS011;62866;55.776;37.496;2023-05-07T03:05:25;3.22;;;2.03;;
54805;SDS011;62866;55.776;37.496;2023-05-07T03:07:51;3.50;;;2.05;;
54805;SDS011;62866;55.776;37.496;2023-05-07T03:10:16;4.22;;;2.17;;
54805;SDS011;62866;55.776;37.496;2023-05-07T03:12:43;2.92;;;1.95;;
54805;SDS011;62866;55.776;37.496;2023-05-07T03:15:09;3.03;;;1.85;;
54805;SDS011;62866;55.776;37.496;2023-05-07T03:17:36;2.67;;;1.58;;
54805;SDS011;62866;55.776;37.496;2023-05-07T03:20:02;3.70;;;1.63;;
54805;SDS011;62866;55.776;37.496;2023-05-07T03:22:27;2.50;;;1.45;;
54805;SDS011;62866;55.776;37.496;2023-05-07T03:24:53;3.08;;;1.75;;
54805;SDS011;62866;55.776;37.496;2023-05-07T03:27:18;2.78;;;1.50;;
54805;SDS011;62866;55.776;37.496;2023-05-07T03:29:44;3.72;;;1.50;;
54805;SDS011;62866;55.776;37.496;2023-05-07T03:32:10;2.92;;;1.25;;
54805;SDS011;62866;55.776;37.496;2023-05-07T03:34:35;2.65;;;1.83;;
54805;SDS011;62866;55.776;37.496;2023-05-07T03:37:01;4.03;;;1.38;;
54805;SDS011;62866;55.776;37.496;2023-05-07T03:39:26;3.83;;;1.45;;
54805;SDS011;62866;55.776;37.496;2023-05-07T03:41:52;3.65;;;1.80;;
54805;SDS011;62866;55.776;37.496;2023-05-07T03:44:18;4.72;;;1.75;;
54805;SDS011;62866;55.776;37.496;2023-05-07T03:46:43;3.28;;;1.58;;
54805;SDS011;62866;55.776;37.496;2023-05-07T03:49:09;2.22;;;1.38;;
54805;SDS011;62866;55.776;37.496;2023-05-07T03:51:34;2.15;;;1.30;;
54805;SDS011;62866;55.776;37.496;2023-05-07T03:54:01;2.00;;;1.15;;
54805;SDS011;62866;55.776;37.496;2023-05-07T03:56:26;2.22;;;1.40;;
54805;SDS011;62866;55.776;37.496;2023-05-07T03:58:53;6.15;;;1.30;;
54805;SDS011;62866;55.776;37.496;2023-05-07T04:01:19;1.48;;;1.17;;
54805;SDS011;62866;55.776;37.496;2023-05-07T04:03:44;1.85;;;1.15;;
54805;SDS011;62866;55.776;37.496;2023-05-07T04:06:10;1.33;;;0.88;;
54805;SDS011;62866;55.776;37.496;2023-05-07T04:08:36;3.00;;;1.73;;
54805;SDS011;62866;55.776;37.496;2023-05-07T04:11:01;2.03;;;1.08;;
54805;SDS011;62866;55.776;37.496;2023-05-07T04:13:27;3.22;;;1.60;;
54805;SDS011;62866;55.776;37.496;2023-05-07T04:15:53;4.35;;;1.67;;
54805;SDS011;62866;55.776;37.496;2023-05-07T04:18:20;2.03;;;1.35;;
54805;SDS011;62866;55.776;37.496;2023-05-07T04:20:47;2.42;;;1.38;;
54805;SDS011;62866;55.776;37.496;2023-05-07T04:23:13;2.42;;;1.60;;
54805;SDS011;62866;55.776;37.496;2023-05-07T04:25:38;1.50;;;1.15;;
54805;SDS011;62866;55.776;37.496;2023-05-07T04:28:04;2.65;;;1.58;;
54805;SDS011;62866;55.776;37.496;2023-05-07T04:30:29;4.18;;;1.73;;
54805;SDS011;62866;55.776;37.496;2023-05-07T04:32:55;2.35;;;1.20;;
54805;SDS011;62866;55.776;37.496;2023-05-07T04:35:21;0.82;;;0.80;;
54805;SDS011;62866;55.776;37.496;2023-05-07T04:37:47;2.88;;;1.40;;
54805;SDS011;62866;55.776;37.496;2023-05-07T04:40:13;2.20;;;1.50;;
54805;SDS011;62866;55.776;37.496;2023-05-07T04:42:38;2.17;;;1.10;;
54805;SDS011;62866;55.776;37.496;2023-05-07T04:45:04;1.98;;;1.42;;
54805;SDS011;62866;55.776;37.496;2023-05-07T04:47:30;2.20;;;1.50;;
54805;SDS011;62866;55.776;37.496;2023-05-07T04:49:57;2.58;;;1.55;;
54805;SDS011;62866;55.776;37.496;2023-05-07T04:52:23;3.30;;;1.67;;
54805;SDS011;62866;55.776;37.496;2023-05-07T04:54:48;2.65;;;1.40;;
54805;SDS011;62866;55.776;37.496;2023-05-07T04:57:14;1.95;;;1.20;;
54805;SDS011;62866;55.776;37.496;2023-05-07T04:59:42;2.30;;;1.63;;
54805;SDS011;62866;55.776;37.496;2023-05-07T05:02:07;2.53;;;1.70;;
54805;SDS011;62866;55.776;37.496;2023-05-07T05:04:33;2.50;;;1.52;;
54805;SDS011;62866;55.776;37.496;2023-05-07T05:06:58;5.57;;;1.75;;
54805;SDS011;62866;55.776;37.496;2023-05-07T05:09:24;2.22;;;1.38;;
54805;SDS011;62866;55.776;37.496;2023-05-07T05:11:50;2.08;;;1.52;;
54805;SDS011;62866;55.776;37.496;2023-05-07T05:14:15;2.50;;;1.80;;
54805;SDS011;62866;55.776;37.496;2023-05-07T05:16:41;2.83;;;1.35;;
54805;SDS011;62866;55.776;37.496;2023-05-07T05:19:06;2.10;;;1.30;;
54805;SDS011;62866;55.776;37.496;2023-05-07T05:21:32;2.53;;;1.33;;
54805;SDS011;62866;55.776;37.496;2023-05-07T05:23:58;1.92;;;1.33;;
54805;SDS011;62866;55.776;37.496;2023-05-07T05:26:24;2.38;;;1.25;;
54805;SDS011;62866;55.776;37.496;2023-05-07T05:28:49;1.25;;;0.85;;
54805;SDS011;62866;55.776;37.496;2023-05-07T05:31:16;1.67;;;1.25;;
54805;SDS011;62866;55.776;37.496;2023-05-07T05:33:41;2.10;;;1.05;;
54805;SDS011;62866;55.776;37.496;2023-05-07T05:36:09;1.40;;;1.15;;
54805;SDS011;62866;55.776;37.496;2023-05-07T05:38:34;3.00;;;1.10;;
54805;SDS011;62866;55.776;37.496;2023-05-07T05:41:00;2.05;;;0.95;;
54805;SDS011;62866;55.776;37.496;2023-05-07T05:43:25;1.42;;;1.25;;
54805;SDS011;62866;55.776;37.496;2023-05-07T05:45:51;2.22;;;1.13;;
54805;SDS011;62866;55.776;37.496;2023-05-07T05:48:17;1.55;;;1.25;;
54805;SDS011;62866;55.776;37.496;2023-05-07T05:50:42;1.20;;;0.70;;
54805;SDS011;62866;55.776;37.496;2023-05-07T05:53:08;2.15;;;1.55;;
54805;SDS011;62866;55.776;37.496;2023-05-07T05:55:33;1.20;;;0.85;;
54805;SDS011;62866;55.776;37.496;2023-05-07T05:58:00;2.08;;;0.90;;
54805;SDS011;62866;55.776;37.496;2023-05-07T06:00:26;1.50;;;1.08;;
54805;SDS011;62866;55.776;37.496;2023-05-07T06:02:52;3.08;;;1.10;;
54805;SDS011;62866;55.776;37.496;2023-05-07T06:05:17;1.90;;;1.10;;
54805;SDS011;62866;55.776;37.496;2023-05-07T06:07:43;2.33;;;1.30;;
54805;SDS011;62866;55.776;37.496;2023-05-07T06:10:08;2.60;;;1.30;;
54805;SDS011;62866;55.776;37.496;2023-05-07T06:12:34;0.90;;;0.73;;
54805;SDS011;62866;55.776;37.496;2023-05-07T06:15:00;2.50;;;1.20;;
54805;SDS011;62866;55.776;37.496;2023-05-07T06:17:26;1.63;;;0.80;;
54805;SDS011;62866;55.776;37.496;2023-05-07T06:19:52;1.98;;;1.35;;
54805;SDS011;62866;55.776;37.496;2023-05-07T06:22:17;1.45;;;0.80;;
54805;SDS011;62866;55.776;37.496;2023-05-07T06:24:43;1.50;;;1.15;;
54805;SDS011;62866;55.776;37.496;2023-05-07T06:27:08;1.60;;;1.30;;
54805;SDS011;62866;55.776;37.496;2023-05-07T06:29:34;2.05;;;1.52;;
54805;SDS011;62866;55.776;37.496;2023-05-07T06:32:09;1.13;;;0.90;;
54805;SDS011;62866;55.776;37.496;2023-05-07T06:34:35;0.82;;;0.75;;
54805;SDS011;62866;55.776;37.496;2023-05-07T06:37:02;1.38;;;0.98;;
54805;SDS011;62866;55.776;37.496;2023-05-07T06:39:28;1.88;;;1.25;;
54805;SDS011;62866;55.776;37.496;2023-05-07T06:41:53;1.20;;;0.77;;
54805;SDS011;62866;55.776;37.496;2023-05-07T06:44:19;1.92;;;1.02;;
54805;SDS011;62866;55.776;37.496;2023-05-07T06:46:45;1.92;;;0.75;;
54805;SDS011;62866;55.776;37.496;2023-05-07T06:49:12;1.95;;;1.20;;
54805;SDS011;62866;55.776;37.496;2023-05-07T06:51:38;1.17;;;0.85;;
54805;SDS011;62866;55.776;37.496;2023-05-07T06:54:03;1.55;;;1.15;;
54805;SDS011;62866;55.776;37.496;2023-05-07T06:56:30;1.52;;;0.90;;
54805;SDS011;62866;55.776;37.496;2023-05-07T06:58:56;1.83;;;0.90;;
54805;SDS011;62866;55.776;37.496;2023-05-07T07:01:21;3.22;;;1.10;;
54805;SDS011;62866;55.776;37.496;2023-05-07T07:03:47;2.25;;;1.08;;
54805;SDS011;62866;55.776;37.496;2023-05-07T07:06:12;1.55;;;1.10;;
54805;SDS011;62866;55.776;37.496;2023-05-07T07:08:38;1.83;;;1.10;;
54805;SDS011;62866;55.776;37.496;2023-05-07T07:11:04;1.17;;;1.00;;
54805;SDS011;62866;55.776;37.496;2023-05-07T07:13:30;1.33;;;1.00;;
54805;SDS011;62866;55.776;37.496;2023-05-07T07:15:56;2.70;;;1.10;;
54805;SDS011;62866;55.776;37.496;2023-05-07T07:18:21;2.88;;;1.02;;
54805;SDS011;62866;55.776;37.496;2023-05-07T07:20:47;3.28;;;0.90;;
54805;SDS011;62866;55.776;37.496;2023-05-07T07:23:12;1.60;;;1.10;;
54805;SDS011;62866;55.776;37.496;2023-05-07T07:25:38;2.83;;;0.90;;
54805;SDS011;62866;55.776;37.496;2023-05-07T07:28:05;0.88;;;0.80;;
54805;SDS011;62866;55.776;37.496;2023-05-07T07:30:31;1.25;;;1.15;;
54805;SDS011;62866;55.776;37.496;2023-05-07T07:32:56;1.00;;;0.80;;
54805;SDS011;62866;55.776;37.496;2023-05-07T07:35:27;1.65;;;0.90;;
54805;SDS011;62866;55.776;37.496;2023-05-07T07:37:59;1.30;;;0.95;;
54805;SDS011;62866;55.776;37.496;2023-05-07T07:40:24;1.30;;;1.10;;
54805;SDS011;62866;55.776;37.496;2023-05-07T07:42:51;1.65;;;0.82;;
54805;SDS011;62866;55.776;37.496;2023-05-07T07:45:17;1.50;;;1.00;;
54805;SDS011;62866;55.776;37.496;2023-05-07T07:47:42;1.60;;;0.80;;
54805;SDS011;62866;55.776;37.496;2023-05-07T07:50:11;1.08;;;0.82;;
54805;SDS011;62866;55.776;37.496;2023-05-07T07:52:37;0.73;;;0.70;;
54805;SDS011;62866;55.776;37.496;2023-05-07T07:55:06;1.05;;;0.82;;
54805;SDS011;62866;55.776;37.496;2023-05-07T07:57:46;0.98;;;0.90;;
54805;SDS011;62866;55.776;37.496;2023-05-07T08:00:11;1.77;;;0.80;;
54805;SDS011;62866;55.776;37.496;2023-05-07T08:02:37;1.38;;;0.85;;
54805;SDS011;62866;55.776;37.496;2023-05-07T08:05:03;2.17;;;0.73;;
54805;SDS011;62866;55.776;37.496;2023-05-07T08:07:31;0.90;;;0.73;;
54805;SDS011;62866;55.776;37.496;2023-05-07T08:09:57;0.88;;;0.88;;
54805;SDS011;62866;55.776;37.496;2023-05-07T08:12:22;1.05;;;0.95;;
54805;SDS011;62866;55.776;37.496;2023-05-07T08:14:48;1.15;;;0.90;;
54805;SDS011;62866;55.776;37.496;2023-05-07T08:17:14;0.70;;;0.70;;
54805;SDS011;62866;55.776;37.496;2023-05-07T08:19:43;1.23;;;0.85;;
54805;SDS011;62866;55.776;37.496;2023-05-07T08:22:09;1.55;;;0.90;;
54805;SDS011;62866;55.776;37.496;2023-05-07T08:24:38;0.85;;;0.80;;
54805;SDS011;62866;55.776;37.496;2023-05-07T08:27:03;1.77;;;0.80;;
54805;SDS011;62866;55.776;37.496;2023-05-07T08:29:29;1.25;;;0.73;;
54805;SDS011;62866;55.776;37.496;2023-05-07T08:31:57;1.30;;;0.90;;
54805;SDS011;62866;55.776;37.496;2023-05-07T08:34:23;0.77;;;0.77;;
54805;SDS011;62866;55.776;37.496;2023-05-07T08:36:48;1.88;;;1.77;;
54805;SDS011;62866;55.776;37.496;2023-05-07T08:39:17;0.93;;;0.68;;
54805;SDS011;62866;55.776;37.496;2023-05-07T08:41:48;1.05;;;0.70;;
54805;SDS011;62866;55.776;37.496;2023-05-07T08:44:19;1.83;;;1.73;;
54805;SDS011;62866;55.776;37.496;2023-05-07T08:46:51;1.08;;;0.93;;
54805;SDS011;62866;55.776;37.496;2023-05-07T08:49:20;1.27;;;1.13;;
54805;SDS011;62866;55.776;37.496;2023-05-07T08:51:46;0.70;;;0.70;;
54805;SDS011;62866;55.776;37.496;2023-05-07T08:54:12;3.00;;;0.90;;
54805;SDS011;62866;55.776;37.496;2023-05-07T08:56:41;1.73;;;0.88;;
54805;SDS011;62866;55.776;37.496;2023-05-07T08:59:06;0.85;;;0.82;;
54805;SDS011;62866;55.776;37.496;2023-05-07T09:01:38;1.02;;;0.70;;
54805;SDS011;62866;55.776;37.496;2023-05-07T09:04:03;0.98;;;0.80;;
54805;SDS011;62866;55.776;37.496;2023-05-07T09:06:29;1.00;;;0.75;;
54805;SDS011;62866;55.776;37.496;2023-05-07T09:08:55;1.60;;;1.00;;
54805;SDS011;62866;55.776;37.496;2023-05-07T09:11:21;1.75;;;1.13;;
54805;SDS011;62866;55.776;37.496;2023-05-07T09:13:53;0.93;;;0.90;;
54805;SDS011;62866;55.776;37.496;2023-05-07T09:16:20;1.23;;;1.13;;
54805;SDS011;62866;55.776;37.496;2023-05-07T09:18:47;1.50;;;0.75;;
54805;SDS011;62866;55.776;37.496;2023-05-07T09:21:16;1.83;;;0.85;;
54805;SDS011;62866;55.776;37.496;2023-05-07T09:23:43;1.30;;;1.20;;
54805;SDS011;62866;55.776;37.496;2023-05-07T09:26:08;2.20;;;0.80;;
54805;SDS011;62866;55.776;37.496;2023-05-07T09:28:40;0.80;;;0.65;;
54805;SDS011;62866;55.776;37.496;2023-05-07T09:31:07;1.13;;;0.80;;
54805;SDS011;62866;55.776;37.496;2023-05-07T09:33:33;0.70;;;0.70;;
54805;SDS011;62866;55.776;37.496;2023-05-07T09:36:03;1.60;;;1.10;;
54805;SDS011;62866;55.776;37.496;2023-05-07T09:38:30;1.55;;;0.80;;
54805;SDS011;62866;55.776;37.496;2023-05-07T09:41:06;0.88;;;0.80;;
54805;SDS011;62866;55.776;37.496;2023-05-07T09:43:36;1.60;;;1.05;;
54805;SDS011;62866;55.776;37.496;2023-05-07T09:46:05;1.05;;;0.93;;
54805;SDS011;62866;55.776;37.496;2023-05-07T09:48:42;0.70;;;0.60;;
54805;SDS011;62866;55.776;37.496;2023-05-07T09:53:47;1.23;;;0.80;;
54805;SDS011;62866;55.776;37.496;2023-05-07T09:56:14;1.67;;;0.77;;
54805;SDS011;62866;55.776;37.496;2023-05-07T09:58:42;4.80;;;0.85;;
54805;SDS011;62866;55.776;37.496;2023-05-07T10:01:09;3.72;;;1.00;;
54805;SDS011;62866;55.776;37.496;2023-05-07T10:03:36;1.05;;;0.65;;
54805;SDS011;62866;55.776;37.496;2023-05-07T10:06:02;0.75;;;0.70;;
54805;SDS011;62866;55.776;37.496;2023-05-07T10:08:30;1.27;;;0.80;;
54805;SDS011;62866;55.776;37.496;2023-05-07T10:10:56;2.35;;;0.95;;
54805;SDS011;62866;55.776;37.496;2023-05-07T10:13:21;1.02;;;0.80;;
54805;SDS011;62866;55.776;37.496;2023-05-07T10:15:47;0.52;;;0.52;;
54805;SDS011;62866;55.776;37.496;2023-05-07T10:18:13;0.85;;;0.70;;
54805;SDS011;62866;55.776;37.496;2023-05-07T10:20:39;1.40;;;0.93;;
54805;SDS011;62866;55.776;37.496;2023-05-07T10:23:06;0.88;;;0.75;;
54805;SDS011;62866;55.776;37.496;2023-05-07T10:25:33;1.08;;;0.80;;
54805;SDS011;62866;55.776;37.496;2023-05-07T10:28:01;1.42;;;1.00;;
54805;SDS011;62866;55.776;37.496;2023-05-07T10:33:03;0.77;;;0.60;;
54805;SDS011;62866;55.776;37.496;2023-05-07T10:35:32;0.90;;;0.80;;
54805;SDS011;62866;55.776;37.496;2023-05-07T10:38:04;1.55;;;1.00;;
54805;SDS011;62866;55.776;37.496;2023-05-07T10:40:30;3.60;;;0.82;;
54805;SDS011;62866;55.776;37.496;2023-05-07T10:43:00;0.68;;;0.60;;
54805;SDS011;62866;55.776;37.496;2023-05-07T10:45:27;2.97;;;0.80;;
54805;SDS011;62866;55.776;37.496;2023-05-07T10:48:12;1.90;;;1.17;;
54805;SDS011;62866;55.776;37.496;2023-05-07T10:55:46;1.08;;;0.70;;
54805;SDS011;62866;55.776;37.496;2023-05-07T11:00:47;1.15;;;0.90;;
54805;SDS011;62866;55.776;37.496;2023-05-07T11:03:16;1.10;;;0.90;;
54805;SDS011;62866;55.776;37.496;2023-05-07T11:05:47;1.40;;;0.90;;
54805;SDS011;62866;55.776;37.496;2023-05-07T11:11:17;2.83;;;0.70;;
54805;SDS011;62866;55.776;37.496;2023-05-07T11:14:05;2.65;;;0.80;;
54805;SDS011;62866;55.776;37.496;2023-05-07T11:16:31;1.55;;;0.70;;
54805;SDS011;62866;55.776;37.496;2023-05-07T11:18:58;1.67;;;1.10;;
54805;SDS011;62866;55.776;37.496;2023-05-07T11:21:57;1.63;;;1.02;;
54805;SDS011;62866;55.776;37.496;2023-05-07T11:24:15;2.08;;;0.90;;
54805;SDS011;62866;55.776;37.496;2023-05-07T11:26:48;1.13;;;0.82;;
54805;SDS011;62866;55.776;37.496;2023-05-07T11:29:18;2.05;;;1.08;;
54805;SDS011;62866;55.776;37.496;2023-05-07T11:31:54;1.95;;;1.00;;
54805;SDS011;62866;55.776;37.496;2023-05-07T11:34:20;2.00;;;0.90;;
54805;SDS011;62866;55.776;37.496;2023-05-07T11:36:51;0.95;;;0.75;;
54805;SDS011;62866;55.776;37.496;2023-05-07T11:39:23;2.40;;;1.02;;
54805;SDS011;62866;55.776;37.496;2023-05-07T11:41:57;1.42;;;0.88;;
54805;SDS011;62866;55.776;37.496;2023-05-07T11:44:24;1.20;;;0.90;;
54805;SDS011;62866;55.776;37.496;2023-05-07T11:46:49;1.50;;;1.00;;
54805;SDS011;62866;55.776;37.496;2023-05-07T11:49:16;1.02;;;0.90;;
54805;SDS011;62866;55.776;37.496;2023-05-07T11:51:42;1.40;;;0.90;;
54805;SDS011;62866;55.776;37.496;2023-05-07T11:54:08;0.90;;;0.90;;
54805;SDS011;62866;55.776;37.496;2023-05-07T11:56:36;1.65;;;1.00;;
54805;SDS011;62866;55.776;37.496;2023-05-07T11:59:02;1.65;;;1.15;;
54805;SDS011;62866;55.776;37.496;2023-05-07T12:01:28;2.28;;;1.15;;
54805;SDS011;62866;55.776;37.496;2023-05-07T12:03:53;1.70;;;0.98;;
54805;SDS011;62866;55.776;37.496;2023-05-07T12:06:19;1.63;;;1.02;;
54805;SDS011;62866;55.776;37.496;2023-05-07T12:08:45;1.40;;;1.10;;
54805;SDS011;62866;55.776;37.496;2023-05-07T12:11:15;1.40;;;1.02;;
54805;SDS011;62866;55.776;37.496;2023-05-07T12:13:46;1.40;;;0.90;;
54805;SDS011;62866;55.776;37.496;2023-05-07T12:16:12;2.22;;;1.20;;
54805;SDS011;62866;55.776;37.496;2023-05-07T12:18:38;1.23;;;0.65;;
54805;SDS011;62866;55.776;37.496;2023-05-07T12:21:04;1.92;;;0.80;;
54805;SDS011;62866;55.776;37.496;2023-05-07T12:23:30;1.90;;;0.70;;
54805;SDS011;62866;55.776;37.496;2023-05-07T12:25:56;0.93;;;0.80;;
54805;SDS011;62866;55.776;37.496;2023-05-07T12:28:22;4.35;;;1.25;;
54805;SDS011;62866;55.776;37.496;2023-05-07T12:30:48;2.15;;;0.98;;
54805;SDS011;62866;55.776;37.496;2023-05-07T12:33:19;1.33;;;1.00;;
54805;SDS011;62866;55.776;37.496;2023-05-07T12:35:48;2.00;;;1.30;;
54805;SDS011;62866;55.776;37.496;2023-05-07T12:38:15;3.85;;;1.90;;
54805;SDS011;62866;55.776;37.496;2023-05-07T12:40:46;3.28;;;1.48;;
54805;SDS011;62866;55.776;37.496;2023-05-07T12:43:19;1.77;;;1.08;;
54805;SDS011;62866;55.776;37.496;2023-05-07T12:45:53;3.65;;;1.00;;
54805;SDS011;62866;55.776;37.496;2023-05-07T12:48:21;1.50;;;0.90;;
54805;SDS011;62866;55.776;37.496;2023-05-07T12:50:54;2.78;;;1.23;;
54805;SDS011;62866;55.776;37.496;2023-05-07T12:53:21;1.42;;;1.08;;
54805;SDS011;62866;55.776;37.496;2023-05-07T12:55:48;1.48;;;0.82;;
54805;SDS011;62866;55.776;37.496;2023-05-07T12:58:16;1.95;;;0.80;;
54805;SDS011;62866;55.776;37.496;2023-05-07T13:00:43;2.00;;;1.05;;
54805;SDS011;62866;55.776;37.496;2023-05-07T13:03:09;1.73;;;1.10;;
54805;SDS011;62866;55.776;37.496;2023-05-07T13:05:35;1.45;;;0.98;;
54805;SDS011;62866;55.776;37.496;2023-05-07T13:08:01;3.00;;;0.95;;
54805;SDS011;62866;55.776;37.496;2023-05-07T13:10:27;1.63;;;1.00;;
54805;SDS011;62866;55.776;37.496;2023-05-07T13:12:53;1.33;;;0.80;;
54805;SDS011;62866;55.776;37.496;2023-05-07T13:15:19;1.27;;;0.80;;
54805;SDS011;62866;55.776;37.496;2023-05-07T13:17:45;1.13;;;0.90;;
54805;SDS011;62866;55.776;37.496;2023-05-07T13:20:10;3.03;;;1.38;;
54805;SDS011;62866;55.776;37.496;2023-05-07T13:22:37;2.17;;;1.10;;
54805;SDS011;62866;55.776;37.496;2023-05-07T13:25:04;2.88;;;1.20;;
54805;SDS011;62866;55.776;37.496;2023-05-07T13:27:30;1.42;;;1.05;;
54805;SDS011;62866;55.776;37.496;2023-05-07T13:30:02;2.83;;;1.02;;
54805;SDS011;62866;55.776;37.496;2023-05-07T13:32:28;1.83;;;1.00;;
54805;SDS011;62866;55.776;37.496;2023-05-07T13:34:55;1.83;;;0.80;;
54805;SDS011;62866;55.776;37.496;2023-05-07T13:37:20;2.58;;;1.02;;
54805;SDS011;62866;55.776;37.496;2023-05-07T13:39:46;1.60;;;0.98;;
54805;SDS011;62866;55.776;37.496;2023-05-07T13:42:11;2.92;;;1.30;;
54805;SDS011;62866;55.776;37.496;2023-05-07T13:44:37;2.42;;;1.23;;
54805;SDS011;62866;55.776;37.496;2023-05-07T13:47:02;3.28;;;1.35;;
54805;SDS011;62866;55.776;37.496;2023-05-07T13:49:28;1.83;;;1.20;;
54805;SDS011;62866;55.776;37.496;2023-05-07T13:51:53;2.15;;;1.17;;
54805;SDS011;62866;55.776;37.496;2023-05-07T13:54:19;3.67;;;1.15;;
54805;SDS011;62866;55.776;37.496;2023-05-07T13:56:44;3.72;;;1.20;;
54805;SDS011;62866;55.776;37.496;2023-05-07T13:59:10;2.22;;;1.42;;
54805;SDS011;62866;55.776;37.496;2023-05-07T14:01:36;3.50;;;1.40;;
54805;SDS011;62866;55.776;37.496;2023-05-07T14:04:01;3.17;;;1.08;;
54805;SDS011;62866;55.776;37.496;2023-05-07T14:06:27;1.20;;;1.00;;
54805;SDS011;62866;55.776;37.496;2023-05-07T14:08:52;0.85;;;0.85;;
54805;SDS011;62866;55.776;37.496;2023-05-07T14:11:18;2.40;;;1.33;;
54805;SDS011;62866;55.776;37.496;2023-05-07T14:13:44;1.48;;;1.17;;
54805;SDS011;62866;55.776;37.496;2023-05-07T14:16:09;1.65;;;1.25;;
54805;SDS011;62866;55.776;37.496;2023-05-07T14:18:35;2.13;;;1.10;;
54805;SDS011;62866;55.776;37.496;2023-05-07T14:21:04;1.33;;;0.75;;
54805;SDS011;62866;55.776;37.496;2023-05-07T14:23:31;2.97;;;1.20;;
54805;SDS011;62866;55.776;37.496;2023-05-07T14:25:56;1.83;;;1.20;;
54805;SDS011;62866;55.776;37.496;2023-05-07T14:28:22;3.83;;;1.20;;
54805;SDS011;62866;55.776;37.496;2023-05-07T14:30:48;3.67;;;1.20;;
54805;SDS011;62866;55.776;37.496;2023-05-07T14:33:21;3.72;;;1.10;;
54805;SDS011;62866;55.776;37.496;2023-05-07T14:35:52;1.55;;;0.90;;
54805;SDS011;62866;55.776;37.496;2023-05-07T14:38:18;1.13;;;0.80;;
54805;SDS011;62866;55.776;37.496;2023-05-07T14:40:44;2.30;;;1.08;;
54805;SDS011;62866;55.776;37.496;2023-05-07T14:43:09;2.72;;;1.25;;
54805;SDS011;62866;55.776;37.496;2023-05-07T14:45:35;3.17;;;1.67;;
54805;SDS011;62866;55.776;37.496;2023-05-07T14:48:00;5.30;;;1.48;;